EIME

Casement Air Base Airport

Baldonnel, Ireland
METAR EIME 161300Z 19014KT 9999 -SHRA FEW018CB SCT030 BKN060 07/04 Q0998
Observed Flight Rules
Dec-16 @ 13:00 UTC (51 minutes ago) Visual Flight Rules
Wind Visibility Clouds Conditions
190° at 14 knots 10,000+ meters
  • Few at 1,800' AGL
  • Scattered at 3,000' AGL
  • Broken at 6,000' AGL
  • Light Rain
Temperatures Readings
Current 7°C / 45°F
Dewpoint 4°C / 39°F
Humidity 81%
Altimeter 29.47" Hg
Pressure 998 hPa
Elevation 93
METAR EIME 161300Z 19014KT 9999 -SHRA FEW018CB SCT030 BKN060 07/04 Q0998
Observed Flight Rules
Dec-16 @ 13:00 UTC
(51 minutes ago)
VFR
Wind Visibility
190° at 14 knots 10,000+ meters
Clouds
  • Few at 1,800' AGL
  • Scattered at 3,000' AGL
  • Broken at 6,000' AGL
Conditions
  • Light Rain
Temperature Dewpoint
7°C / 45°F 4°C / 39°F
Humidity Altimeter Pressure
81% 29.47" Hg 998 hPa